Terminal Aerodrome Forecast
Issued by NWS

Home | Current Version | Previous Version | Text Only | Print | Product List | Glossary On
Versions: 1 2 3 4 5 6 7 8 9 10 11 12 13 14 15 16 17 18
369
FTUS43 KAPX 280650 AAA
TAFMBL
TAF AMD
KMBL 280650Z 2807/2906 36004KT P6SM OVC005
     FM281200 01005KT P6SM BKN010
     FM281600 03007KT P6SM SCT015
     FM281800 36008KT P6SM FEW200=

USA.gov is the U.S. government's official web portal to all federal, state and local government web resources and services.